Time;durP1;ratioP1;P1;durP2;ratioP2;P2;SDS_P1;SDS_P2;PMS_P1;PMS_P2;Temp;Humidity;BMP_temperature;BMP_pressure;BME280_temperature;BME280_humidity;BME280_pressure;Samples;Min_cycle;Max_cycle;Signal;HPM_P1;HPM_P2
2021/10/29 00:00:38;;;;;;;;;20.33;17.67;;;;;;;;6223797;22;46863;-81
2021/10/29 00:03:04;;;;;;;;;16.33;14.00;;;;;;;;6252636;22;44789;-81
2021/10/29 00:05:32;;;;;;;;;18.00;16.33;;;;;;;;6225452;22;45699;-81
2021/10/29 00:07:57;;;;;;;;;13.33;13.00;;;;;;;;6225717;22;45484;-81
2021/10/29 00:10:41;;;;;;;;;18.33;14.33;;;;;;;;6251706;22;45124;-81
2021/10/29 00:13:06;;;;;;;;;20.67;17.00;;;;;;;;6251477;22;45368;-80
2021/10/29 00:15:32;;;;;;;;;17.00;15.67;;;;;;;;6222892;22;44784;-80
2021/10/29 00:17:58;;;;;;;;;18.67;17.00;;;;;;;;6247093;22;45333;-80
2021/10/29 00:20:26;;;;;;;;;16.33;15.00;;;;;;;;6222444;22;47009;-81
2021/10/29 00:22:52;;;;;;;;;20.33;15.33;;;;;;;;6223705;22;45575;-81
2021/10/29 00:25:32;;;;;;;;;16.33;16.33;;;;;;;;6252048;22;45399;-80
2021/10/29 00:28:00;;;;;;;;;13.00;13.00;;;;;;;;6252842;22;44720;-80
2021/10/29 00:30:25;;;;;;;;;15.33;15.00;;;;;;;;6224718;22;47222;-80
2021/10/29 00:32:54;;;;;;;;;16.33;14.67;;;;;;;;6251946;22;45309;-81
2021/10/29 00:35:21;;;;;;;;;17.33;17.33;;;;;;;;6226097;22;45366;-81
2021/10/29 00:37:49;;;;;;;;;19.33;17.67;;;;;;;;6250967;22;45448;-80
2021/10/29 00:40:17;;;;;;;;;21.33;18.00;;;;;;;;6223865;22;48248;-81
2021/10/29 00:45:53;;;;;;;;;19.67;18.67;;;;;;;;6279793;22;45940;-81
2021/10/29 00:48:22;;;;;;;;;19.67;19.67;;;;;;;;6256222;22;45322;-80
2021/10/29 00:50:50;;;;;;;;;19.67;17.00;;;;;;;;6252294;22;47354;-81
2021/10/29 00:53:18;;;;;;;;;18.67;17.33;;;;;;;;6283015;22;45342;-80
2021/10/29 00:55:43;;;;;;;;;12.33;12.33;;;;;;;;6284580;22;44882;-80
2021/10/29 00:58:11;;;;;;;;;15.67;15.67;;;;;;;;6256854;22;45159;-80
2021/10/29 01:00:37;;;;;;;;;16.33;16.00;;;;;;;;6256731;22;46791;-83
2021/10/29 01:03:02;;;;;;;;;17.00;17.00;;;;;;;;6256856;22;45373;-84
2021/10/29 01:05:31;;;;;;;;;15.67;15.33;;;;;;;;6257616;22;45330;-83
2021/10/29 01:07:58;;;;;;;;;19.33;19.00;;;;;;;;6258940;22;45410;-83
2021/10/29 01:10:27;;;;;;;;;16.67;14.67;;;;;;;;6256760;22;47538;-83
2021/10/29 01:12:55;;;;;;;;;20.33;18.33;;;;;;;;6258726;22;45754;-83
2021/10/29 01:15:20;;;;;;;;;25.00;21.67;;;;;;;;6291190;22;44811;-83
2021/10/29 01:17:45;;;;;;;;;17.33;17.33;;;;;;;;6287457;22;44748;-84
2021/10/29 01:20:51;;;;;;;;;;;;;;;;;;;;;
2021/10/29 01:23:17;;;;;;;;;22.67;21.67;;;;;;;;6285962;22;73380;-84
2021/10/29 01:25:42;;;;;;;;;24.33;23.67;;;;;;;;6259453;22;45193;-84
2021/10/29 01:28:11;;;;;;;;;29.33;21.00;;;;;;;;6258766;22;45553;-84
2021/10/29 01:30:37;;;;;;;;;22.67;21.67;;;;;;;;6258580;22;46987;-84
2021/10/29 01:33:02;;;;;;;;;25.00;23.33;;;;;;;;6285356;22;45393;-83
2021/10/29 01:35:38;;;;;;;;;27.67;24.00;;;;;;;;6259483;22;45324;-83
2021/10/29 01:38:58;;;;;;;;;19.67;19.67;;;;;;;;6259407;22;44868;-84
2021/10/29 01:41:23;;;;;;;;;23.33;21.67;;;;;;;;6163671;23;46082;-84
2021/10/29 01:43:54;;;;;;;;;18.33;18.33;;;;;;;;6135415;23;44860;-84
2021/10/29 01:46:51;;;;;;;;;20.67;20.33;;;;;;;;6163164;23;44861;-84
2021/10/29 01:49:23;;;;;;;;;24.67;21.67;;;;;;;;6138855;23;44887;-85
2021/10/29 01:51:51;;;;;;;;;19.67;18.67;;;;;;;;6137516;23;46860;-85
2021/10/29 01:54:44;;;;;;;;;20.67;19.67;;;;;;;;6161472;23;45473;-84
2021/10/29 01:57:10;;;;;;;;;17.33;17.33;;;;;;;;6139831;23;45541;-84
2021/10/29 01:59:35;;;;;;;;;10.67;10.67;;;;;;;;6161283;23;45687;-84
2021/10/29 02:02:03;;;;;;;;;24.67;21.67;;;;;;;;6160887;23;45160;-84
2021/10/29 02:04:28;;;;;;;;;21.67;19.67;;;;;;;;6161151;23;44787;-84
2021/10/29 02:06:54;;;;;;;;;20.67;19.67;;;;;;;;6137497;23;45289;-85
2021/10/29 02:09:19;;;;;;;;;20.33;20.33;;;;;;;;6137413;23;44877;-84
2021/10/29 02:11:47;;;;;;;;;19.33;16.33;;;;;;;;6159353;23;45297;-84
2021/10/29 02:14:13;;;;;;;;;22.00;19.00;;;;;;;;6148735;22;45561;-84
2021/10/29 02:16:38;;;;;;;;;20.00;16.33;;;;;;;;6227890;22;45331;-84
2021/10/29 02:19:07;;;;;;;;;18.67;18.67;;;;;;;;6228515;22;45421;-84
2021/10/29 02:24:34;;;;;;;;;14.67;14.33;;;;;;;;6253440;22;45348;-84
2021/10/29 02:27:00;;;;;;;;;18.00;16.33;;;;;;;;6227153;22;45732;-84
2021/10/29 02:29:26;;;;;;;;;19.00;19.00;;;;;;;;6228978;22;45411;-84
2021/10/29 02:31:51;;;;;;;;;15.67;12.67;;;;;;;;6229948;22;48085;-84
2021/10/29 02:34:17;;;;;;;;;17.33;16.67;;;;;;;;6229573;22;45325;-84
2021/10/29 02:36:42;;;;;;;;;21.33;17.00;;;;;;;;6228173;22;45307;-84
2021/10/29 02:39:08;;;;;;;;;18.00;18.00;;;;;;;;6227583;22;45253;-83
2021/10/29 02:41:34;;;;;;;;;18.67;18.67;;;;;;;;6227119;22;45353;-84
2021/10/29 02:44:00;;;;;;;;;15.67;15.33;;;;;;;;6229474;22;44814;-84
2021/10/29 02:46:29;;;;;;;;;22.67;19.33;;;;;;;;6230607;22;45344;-84
2021/10/29 02:48:57;;;;;;;;;25.00;25.00;;;;;;;;6256258;22;45451;-86
2021/10/29 02:51:25;;;;;;;;;26.33;26.00;;;;;;;;6255327;22;46076;-85
2021/10/29 02:54:11;;;;;;;;;27.67;20.00;;;;;;;;6228183;22;44720;-85
2021/10/29 02:56:39;;;;;;;;;25.33;24.00;;;;;;;;6252894;22;45256;-85
2021/10/29 02:59:04;;;;;;;;;19.00;19.00;;;;;;;;6253705;22;45377;-85
2021/10/29 03:01:30;;;;;;;;;21.67;18.33;;;;;;;;6225319;22;47096;-85
2021/10/29 03:03:55;;;;;;;;;11.33;11.33;;;;;;;;6251341;22;45302;-85
2021/10/29 03:06:21;;;;;;;;;25.00;20.67;;;;;;;;6254061;22;45407;-85
2021/10/29 03:09:07;;;;;;;;;17.33;17.33;;;;;;;;6256474;22;45340;-85
2021/10/29 03:11:35;;;;;;;;;24.00;20.67;;;;;;;;6231147;22;47742;-85
2021/10/29 03:14:03;;;;;;;;;16.33;16.33;;;;;;;;6256303;22;45308;-85
2021/10/29 03:19:39;;;;;;;;;18.00;16.67;;;;;;;;6219742;22;45615;-85
2021/10/29 03:22:04;;;;;;;;;17.33;16.00;;;;;;;;6226623;22;46802;-84
2021/10/29 03:24:31;;;;;;;;;9.33;9.33;;;;;;;;6227194;22;45697;-84
2021/10/29 03:26:56;;;;;;;;;16.00;14.33;;;;;;;;6255000;22;45198;-85
2021/10/29 03:29:22;;;;;;;;;17.00;15.67;;;;;;;;6257568;22;45303;-84
2021/10/29 03:31:47;;;;;;;;;15.33;13.33;;;;;;;;6229653;22;46829;-85
2021/10/29 03:34:12;;;;;;;;;14.33;14.33;;;;;;;;6254926;22;45763;-85
2021/10/29 03:36:38;;;;;;;;;20.00;17.33;;;;;;;;6257279;22;44774;-85
2021/10/29 03:39:16;;;;;;;;;19.00;13.67;;;;;;;;6257160;22;45459;-85
2021/10/29 03:41:57;;;;;;;;;19.67;17.00;;;;;;;;6228849;22;47082;-85
2021/10/29 03:47:34;;;;;;;;;14.33;14.33;;;;;;;;6220459;22;45362;-85
2021/10/29 03:50:14;;;;;;;;;12.00;10.00;;;;;;;;6221772;22;45429;-84
2021/10/29 03:52:49;;;;;;;;;17.00;16.33;;;;;;;;6221284;22;46818;-85
2021/10/29 03:55:14;;;;;;;;;14.67;13.67;;;;;;;;6221764;22;45286;-85
2021/10/29 03:58:04;;;;;;;;;11.67;11.67;;;;;;;;6197154;22;45395;-85
2021/10/29 04:00:38;;;;;;;;;16.00;11.67;;;;;;;;6197151;22;45133;-85
2021/10/29 04:03:04;;;;;;;;;16.33;16.33;;;;;;;;6220716;22;46356;-84
2021/10/29 04:05:33;;;;;;;;;13.33;13.33;;;;;;;;6221620;22;45381;-85
2021/10/29 04:07:59;;;;;;;;;12.67;12.00;;;;;;;;6220523;22;45488;-85
2021/10/29 04:10:26;;;;;;;;;9.00;9.00;;;;;;;;6218588;22;45423;-85
2021/10/29 04:12:56;;;;;;;;;11.00;10.33;;;;;;;;6217604;22;45646;-85
2021/10/29 04:15:30;;;;;;;;;11.00;11.00;;;;;;;;6218765;22;45380;-84
2021/10/29 04:18:00;;;;;;;;;13.50;11.00;;;;;;;;6219883;22;45448;-85
2021/10/29 04:20:35;;;;;;;;;14.67;14.33;;;;;;;;6221648;22;45477;-85
2021/10/29 04:23:01;;;;;;;;;14.00;12.33;;;;;;;;6242233;22;46728;-84
2021/10/29 04:25:41;;;;;;;;;16.67;15.00;;;;;;;;6260353;22;45303;-85
2021/10/29 04:28:11;;;;;;;;;17.00;15.00;;;;;;;;6259331;22;45316;-85
2021/10/29 04:30:37;;;;;;;;;13.00;12.00;;;;;;;;6256495;22;45377;-85
2021/10/29 04:33:12;;;;;;;;;14.33;14.33;;;;;;;;6256509;22;47056;-85
2021/10/29 04:35:38;;;;;;;;;16.33;15.33;;;;;;;;6256911;22;45709;-85
2021/10/29 04:38:13;;;;;;;;;11.00;11.00;;;;;;;;6258574;22;45328;-85
2021/10/29 04:40:41;;;;;;;;;13.00;12.00;;;;;;;;6287917;22;45353;-85
2021/10/29 04:43:16;;;;;;;;;15.00;13.00;;;;;;;;6286713;22;45436;-85
2021/10/29 04:46:13;;;;;;;;;14.67;13.67;;;;;;;;6240545;22;45392;-85
2021/10/29 04:48:41;;;;;;;;;14.33;11.00;;;;;;;;6227294;22;45275;-85
2021/10/29 04:51:07;;;;;;;;;10.33;10.33;;;;;;;;6227990;22;45294;-85
2021/10/29 04:53:32;;;;;;;;;13.67;13.33;;;;;;;;6225953;22;45447;-85
2021/10/29 04:56:08;;;;;;;;;14.67;14.67;;;;;;;;6254525;22;44735;-85
2021/10/29 04:58:33;;;;;;;;;16.67;16.00;;;;;;;;6228141;22;45365;-85
2021/10/29 05:01:03;;;;;;;;;14.33;11.33;;;;;;;;6255126;22;45287;-85
2021/10/29 05:03:32;;;;;;;;;11.33;10.00;;;;;;;;6255407;22;45321;-84
2021/10/29 05:05:57;;;;;;;;;14.33;11.67;;;;;;;;6225845;22;45302;-84
2021/10/29 05:08:31;;;;;;;;;12.33;10.33;;;;;;;;6254048;22;45275;-85
2021/10/29 05:11:11;;;;;;;;;15.33;11.33;;;;;;;;6254241;22;45437;-85
2021/10/29 05:13:50;;;;;;;;;10.00;10.00;;;;;;;;6227203;22;46990;-85
2021/10/29 05:16:20;;;;;;;;;13.67;12.00;;;;;;;;6254882;22;44779;-85
2021/10/29 05:18:46;;;;;;;;;13.00;13.00;;;;;;;;6225047;22;44941;-84
2021/10/29 05:21:11;;;;;;;;;9.00;9.00;;;;;;;;6257645;22;44724;-85
2021/10/29 05:23:59;;;;;;;;;16.00;12.00;;;;;;;;6257206;22;45110;-85
2021/10/29 05:26:25;;;;;;;;;12.00;10.33;;;;;;;;6231309;22;45329;-85
2021/10/29 05:28:59;;;;;;;;;12.67;11.67;;;;;;;;6227356;22;45825;-84
2021/10/29 05:31:24;;;;;;;;;11.33;11.00;;;;;;;;6228226;22;45400;-84
2021/10/29 05:33:49;;;;;;;;;9.67;8.00;;;;;;;;6227652;22;47387;-84
2021/10/29 05:36:26;;;;;;;;;11.33;11.00;;;;;;;;6228882;22;45754;-84
2021/10/29 05:38:56;;;;;;;;;13.33;12.00;;;;;;;;6229748;22;45689;-85
2021/10/29 05:47:23;;;;;;;;;10.00;8.67;;;;;;;;6102013;23;45484;-85
2021/10/29 05:49:48;;;;;;;;;12.00;12.00;;;;;;;;6101764;23;45684;-84
2021/10/29 05:52:28;;;;;;;;;10.00;10.00;;;;;;;;6104536;23;45432;-84
2021/10/29 05:57:20;;;;;;;;;8.33;8.33;;;;;;;;6102686;23;45348;-84
2021/10/29 06:00:08;;;;;;;;;13.33;13.33;;;;;;;;6104345;23;44727;-84
2021/10/29 06:02:34;;;;;;;;;12.33;10.33;;;;;;;;6093219;23;45312;-84
2021/10/29 06:04:59;;;;;;;;;11.00;9.67;;;;;;;;6105030;23;46697;-85
2021/10/29 06:10:16;;;;;;;;;9.67;9.67;;;;;;;;6103684;23;45484;-84
2021/10/29 06:13:18;;;;;;;;;14.00;12.67;;;;;;;;6104949;23;45308;-84
2021/10/29 06:15:46;;;;;;;;;10.67;10.67;;;;;;;;6074445;23;47957;-84
2021/10/29 06:18:22;;;;;;;;;10.00;10.00;;;;;;;;6074420;23;45816;-85
2021/10/29 06:20:48;;;;;;;;;11.33;9.00;;;;;;;;6099509;23;45446;-84
2021/10/29 06:23:20;;;;;;;;;12.67;10.33;;;;;;;;6086553;23;45321;-85
2021/10/29 06:25:47;;;;;;;;;8.00;6.33;;;;;;;;6193024;22;45632;-85
2021/10/29 06:28:30;;;;;;;;;13.67;12.33;;;;;;;;6194366;23;45547;-84
2021/10/29 06:30:57;;;;;;;;;12.00;12.00;;;;;;;;6188612;22;45339;-83
2021/10/29 06:33:28;;;;;;;;;10.67;10.67;;;;;;;;6167431;23;45557;-84
2021/10/29 06:35:56;;;;;;;;;11.00;11.00;;;;;;;;6191608;22;45309;-84
2021/10/29 06:38:50;;;;;;;;;13.00;12.00;;;;;;;;6192890;23;45335;-84
2021/10/29 06:41:32;;;;;;;;;15.33;11.67;;;;;;;;6166994;23;45358;-84
2021/10/29 07:03:41;;;;;;;;;11.33;11.33;;;;;;;;6105389;23;44644;-86
2021/10/29 09:00:10;;;;;;;;;;;;;;;;;;;;;
2021/10/29 09:37:09;;;;;;;;;7.33;7.33;;;;;;;;6260124;22;44731;-85
2021/10/29 09:39:36;;;;;;;;;5.33;5.33;;;;;;;;6232560;22;46650;-83
2021/10/29 09:45:48;;;;;;;;;;;;;;;;;;;;;
2021/10/29 10:53:04;;;;;;;;;;;;;;;;;;;;;
2021/10/29 13:13:41;;;;;;;;;8.00;8.00;;;;;;;;6133397;23;45515;-82
2021/10/29 14:47:14;;;;;;;;;;;;;;;;;;;;;
2021/10/29 15:41:41;;;;;;;;;7.00;7.00;;;;;;;;5989151;23;45324;-83
2021/10/29 15:47:21;;;;;;;;;;;;;;;;;;;;;
2021/10/29 15:50:16;;;;;;;;;;;;;;;;;;;;;
2021/10/29 15:53:24;;;;;;;;;8.00;6.00;;;;;;;;5988771;23;72122;-84
2021/10/29 15:56:03;;;;;;;;;11.33;9.33;;;;;;;;6006662;23;45498;-81
2021/10/29 16:17:11;;;;;;;;;11.00;9.33;;;;;;;;6162080;23;45370;-83
2021/10/29 16:23:11;;;;;;;;;8.67;8.67;;;;;;;;6164930;23;45382;-81
2021/10/29 16:25:49;;;;;;;;;;;;;;;;;;;;;
2021/10/29 16:28:16;;;;;;;;;8.00;8.00;;;;;;;;6161096;22;72062;-83
2021/10/29 16:30:52;;;;;;;;;11.33;11.33;;;;;;;;6138639;23;45252;-82
2021/10/29 16:33:58;;;;;;;;;10.00;9.33;;;;;;;;6165749;22;45564;-83
2021/10/29 16:36:41;;;;;;;;;9.00;9.00;;;;;;;;6135127;23;46654;-83
2021/10/29 16:39:12;;;;;;;;;9.33;9.33;;;;;;;;6103563;23;45361;-82
2021/10/29 16:41:56;;;;;;;;;8.00;7.00;;;;;;;;6103588;23;45354;-81
2021/10/29 16:44:54;;;;;;;;;13.33;9.67;;;;;;;;6105301;23;45356;-82
2021/10/29 16:47:56;;;;;;;;;9.33;9.33;;;;;;;;6124852;22;47003;-82
2021/10/29 16:50:50;;;;;;;;;16.00;13.33;;;;;;;;6167417;22;44756;-82
2021/10/29 16:53:30;;;;;;;;;11.00;11.00;;;;;;;;6074317;23;45395;-82
2021/10/29 16:55:59;;;;;;;;;10.33;10.33;;;;;;;;6049720;23;45405;-82
2021/10/29 16:58:55;;;;;;;;;13.33;12.33;;;;;;;;6046360;23;45108;-82
2021/10/29 17:07:10;;;;;;;;;11.67;11.67;;;;;;;;6047411;23;45418;-81
2021/10/29 17:10:11;;;;;;;;;16.00;13.00;;;;;;;;6054228;23;46846;-81
2021/10/29 17:16:11;;;;;;;;;20.67;18.00;;;;;;;;6020193;23;44879;-82
2021/10/29 17:19:02;;;;;;;;;18.00;17.00;;;;;;;;5986096;23;45102;-82
2021/10/29 17:21:56;;;;;;;;;17.00;14.33;;;;;;;;5993181;23;46628;-82
2021/10/29 17:24:26;;;;;;;;;15.00;15.00;;;;;;;;6015581;23;45462;-82
2021/10/29 17:27:14;;;;;;;;;19.33;18.33;;;;;;;;6013767;23;45318;-83
2021/10/29 17:30:13;;;;;;;;;17.33;17.00;;;;;;;;6063724;23;45402;-82
2021/10/29 17:32:54;;;;;;;;;13.33;12.67;;;;;;;;6136265;23;46717;-82
2021/10/29 17:35:25;;;;;;;;;12.00;12.00;;;;;;;;6136950;23;45516;-83
2021/10/29 17:37:54;;;;;;;;;8.00;8.00;;;;;;;;6136626;23;45355;-82
2021/10/29 17:40:22;;;;;;;;;9.33;9.00;;;;;;;;6162020;22;45221;-82
2021/10/29 17:43:11;;;;;;;;;17.67;12.67;;;;;;;;6135250;23;45636;-81
2021/10/29 17:45:40;;;;;;;;;13.00;11.00;;;;;;;;6130323;23;45298;-81
2021/10/29 17:48:05;;;;;;;;;14.67;12.00;;;;;;;;6134318;23;45498;-82
2021/10/29 17:50:31;;;;;;;;;15.33;12.67;;;;;;;;6137231;23;45483;-83
2021/10/29 17:52:56;;;;;;;;;13.00;13.00;;;;;;;;6200573;22;45461;-83
2021/10/29 17:55:41;;;;;;;;;14.67;12.67;;;;;;;;6196419;22;45469;-82
2021/10/29 17:58:15;;;;;;;;;12.33;12.33;;;;;;;;6222120;22;45373;-83
2021/10/29 18:00:43;;;;;;;;;13.00;12.33;;;;;;;;6226583;22;45489;-82
2021/10/29 18:03:08;;;;;;;;;12.33;12.33;;;;;;;;6255702;22;45469;-82
2021/10/29 18:05:35;;;;;;;;;11.33;10.67;;;;;;;;6255135;22;45239;-82
2021/10/29 18:08:06;;;;;;;;;9.33;9.00;;;;;;;;6254925;22;45196;-82
2021/10/29 18:11:01;;;;;;;;;12.33;10.67;;;;;;;;6227705;22;45402;-82
2021/10/29 18:13:29;;;;;;;;;14.67;10.67;;;;;;;;6229379;22;47173;-82
2021/10/29 18:16:29;;;;;;;;;11.00;11.00;;;;;;;;6225967;22;45445;-82
2021/10/29 18:19:03;;;;;;;;;15.00;15.00;;;;;;;;6225305;22;45473;-82
2021/10/29 18:21:30;;;;;;;;;12.00;12.00;;;;;;;;6225553;22;44880;-82
2021/10/29 18:24:21;;;;;;;;;17.67;16.00;;;;;;;;6223326;22;45290;-81
2021/10/29 18:26:47;;;;;;;;;13.00;13.00;;;;;;;;6246314;22;45250;-82
2021/10/29 18:29:15;;;;;;;;;16.33;14.00;;;;;;;;6225266;22;45401;-81
2021/10/29 18:31:41;;;;;;;;;18.00;15.33;;;;;;;;6253255;22;45432;-81
2021/10/29 18:34:14;;;;;;;;;15.33;15.00;;;;;;;;6253516;22;45607;-81
2021/10/29 18:36:39;;;;;;;;;9.67;9.67;;;;;;;;6254014;22;45436;-81
2021/10/29 18:39:05;;;;;;;;;13.00;12.00;;;;;;;;6255995;22;45352;-81
2021/10/29 18:44:12;;;;;;;;;12.00;12.00;;;;;;;;6219562;22;45236;-82
2021/10/29 18:46:45;;;;;;;;;12.67;12.67;;;;;;;;6196456;22;44757;-82
2021/10/29 18:49:21;;;;;;;;;14.00;14.00;;;;;;;;6197730;22;44846;-81
2021/10/29 18:52:12;;;;;;;;;14.33;13.00;;;;;;;;6224351;22;45377;-81
2021/10/29 18:54:38;;;;;;;;;14.00;14.00;;;;;;;;6223405;22;45377;-81
2021/10/29 18:57:08;;;;;;;;;16.67;16.00;;;;;;;;6222880;22;45372;-81
2021/10/29 18:59:34;;;;;;;;;14.33;14.33;;;;;;;;6224265;22;45368;-82
2021/10/29 19:01:59;;;;;;;;;14.00;14.00;;;;;;;;6194917;22;45703;-81
2021/10/29 19:04:28;;;;;;;;;2.67;2.33;;;;;;;;6195612;22;46506;-81
2021/10/29 19:07:01;;;;;;;;;14.00;14.00;;;;;;;;6221212;22;45188;-81
2021/10/29 19:09:29;;;;;;;;;17.00;14.67;;;;;;;;6196144;22;45273;-83
2021/10/29 19:11:54;;;;;;;;;15.67;15.67;;;;;;;;6224696;22;45701;-81
2021/10/29 19:14:22;;;;;;;;;12.33;11.67;;;;;;;;6223101;22;45351;-81
2021/10/29 19:16:51;;;;;;;;;13.00;12.00;;;;;;;;6223203;22;44740;-81
2021/10/29 19:19:18;;;;;;;;;17.00;16.67;;;;;;;;6222650;22;45279;-83
2021/10/29 19:22:01;;;;;;;;;14.00;13.33;;;;;;;;6223859;22;45430;-81
2021/10/29 19:24:32;;;;;;;;;16.33;13.67;;;;;;;;6224713;22;45321;-81
2021/10/29 19:26:57;;;;;;;;;13.67;13.67;;;;;;;;6224494;22;45268;-81
2021/10/29 19:29:23;;;;;;;;;16.00;15.00;;;;;;;;6196549;22;45325;-81
2021/10/29 19:34:55;;;;;;;;;14.00;14.00;;;;;;;;6223262;22;45469;-81
2021/10/29 19:37:47;;;;;;;;;;;;;;;;;;;;;
2021/10/29 19:46:44;;;;;;;;;;;;;;;;;;;;;
2021/10/29 19:49:13;;;;;;;;;16.00;15.00;;;;;;;;5930210;23;73074;-81
2021/10/29 19:52:01;;;;;;;;;17.00;15.67;;;;;;;;5929410;23;45378;-81
2021/10/29 19:54:31;;;;;;;;;12.67;12.67;;;;;;;;5930130;23;44803;-81
2021/10/29 19:57:07;;;;;;;;;14.33;12.00;;;;;;;;5929997;23;45444;-81
2021/10/29 19:59:32;;;;;;;;;17.00;16.67;;;;;;;;5930041;23;45852;-81
2021/10/29 20:01:58;;;;;;;;;14.67;13.67;;;;;;;;5930822;24;45786;-81
2021/10/29 20:04:23;;;;;;;;;17.00;16.00;;;;;;;;5931195;23;45518;-81
2021/10/29 20:06:48;;;;;;;;;13.67;13.00;;;;;;;;5930724;23;45473;-81
2021/10/29 20:09:13;;;;;;;;;14.33;12.33;;;;;;;;5929793;24;45388;-80
2021/10/29 20:11:39;;;;;;;;;15.00;15.00;;;;;;;;5932140;24;45340;-81
2021/10/29 20:14:04;;;;;;;;;19.67;19.67;;;;;;;;5929101;23;44826;-81
2021/10/29 20:16:29;;;;;;;;;15.00;15.00;;;;;;;;5928019;24;45355;-81
2021/10/29 20:18:55;;;;;;;;;15.00;15.00;;;;;;;;5929940;23;45329;-81
2021/10/29 20:21:20;;;;;;;;;17.33;17.00;;;;;;;;6065399;23;45527;-81
2021/10/29 20:23:47;;;;;;;;;22.00;18.33;;;;;;;;6169930;22;44729;-81
2021/10/29 20:26:12;;;;;;;;;17.00;17.00;;;;;;;;6191233;22;47310;-81
2021/10/29 20:28:37;;;;;;;;;18.67;17.00;;;;;;;;6167621;23;45287;-80
2021/10/29 20:31:03;;;;;;;;;24.00;20.33;;;;;;;;6190581;22;45396;-81
2021/10/29 20:33:28;;;;;;;;;21.00;20.33;;;;;;;;6167656;23;45316;-81
2021/10/29 20:35:53;;;;;;;;;17.00;17.00;;;;;;;;6193865;23;45184;-82
2021/10/29 20:38:19;;;;;;;;;17.33;17.33;;;;;;;;6192646;22;45314;-82
2021/10/29 20:40:45;;;;;;;;;21.33;19.67;;;;;;;;6192662;22;45335;-82
2021/10/29 20:43:10;;;;;;;;;18.00;16.67;;;;;;;;6167446;22;45350;-82
2021/10/29 20:45:36;;;;;;;;;17.67;16.00;;;;;;;;6225337;22;45367;-82
2021/10/29 20:48:02;;;;;;;;;22.33;20.67;;;;;;;;6196585;22;45320;-82
2021/10/29 20:50:28;;;;;;;;;21.00;21.00;;;;;;;;6221467;22;44821;-82
2021/10/29 20:52:54;;;;;;;;;23.00;19.33;;;;;;;;6195213;22;45345;-82
2021/10/29 20:58:22;;;;;;;;;23.00;21.33;;;;;;;;6224637;22;45523;-82
2021/10/29 21:00:48;;;;;;;;;20.33;20.33;;;;;;;;6220970;22;45391;-82
2021/10/29 21:03:13;;;;;;;;;23.67;22.00;;;;;;;;6224233;22;45347;-82
2021/10/29 21:05:40;;;;;;;;;24.00;21.67;;;;;;;;6197617;22;46488;-82
2021/10/29 21:08:07;;;;;;;;;22.00;20.00;;;;;;;;6221382;22;45417;-83
2021/10/29 21:10:33;;;;;;;;;27.33;21.67;;;;;;;;6220805;22;45155;-83
2021/10/29 21:12:59;;;;;;;;;17.67;16.67;;;;;;;;6196444;22;44793;-83
2021/10/29 21:15:31;;;;;;;;;18.67;18.33;;;;;;;;6192745;22;47140;-83
2021/10/29 21:17:56;;;;;;;;;21.67;21.67;;;;;;;;6194116;22;45431;-82
2021/10/29 21:20:21;;;;;;;;;25.33;20.67;;;;;;;;6194275;22;45465;-82
2021/10/29 21:22:49;;;;;;;;;18.00;18.00;;;;;;;;6220584;22;45151;-83
2021/10/29 21:25:15;;;;;;;;;22.67;21.00;;;;;;;;6221832;22;45303;-83
2021/10/29 21:27:41;;;;;;;;;22.67;20.67;;;;;;;;6194214;22;45480;-83
2021/10/29 21:30:06;;;;;;;;;23.00;19.33;;;;;;;;6195630;22;45288;-83
2021/10/29 21:32:32;;;;;;;;;25.67;24.00;;;;;;;;6195475;22;45019;-83
2021/10/29 21:34:58;;;;;;;;;22.67;21.67;;;;;;;;6225240;22;45294;-83
2021/10/29 21:37:25;;;;;;;;;22.00;20.67;;;;;;;;6197816;22;45383;-83
2021/10/29 21:39:53;;;;;;;;;25.33;23.00;;;;;;;;6224061;22;45318;-83
2021/10/29 21:42:19;;;;;;;;;23.00;23.00;;;;;;;;6196858;22;45483;-83
2021/10/29 21:44:48;;;;;;;;;27.00;27.00;;;;;;;;6194404;22;46716;-83
2021/10/29 21:47:14;;;;;;;;;27.33;24.33;;;;;;;;6196747;22;45299;-83
2021/10/29 21:49:41;;;;;;;;;23.67;22.00;;;;;;;;6195565;22;45456;-83
2021/10/29 21:52:06;;;;;;;;;29.00;25.33;;;;;;;;6194334;22;45835;-83
2021/10/29 21:54:32;;;;;;;;;23.33;23.33;;;;;;;;6193663;22;46976;-83
2021/10/29 21:56:59;;;;;;;;;22.00;22.00;;;;;;;;6223281;22;45175;-83
2021/10/29 21:59:24;;;;;;;;;28.00;25.33;;;;;;;;6222967;22;45597;-83
2021/10/29 22:01:50;;;;;;;;;25.67;25.67;;;;;;;;6196637;22;45338;-82
2021/10/29 22:04:16;;;;;;;;;25.67;25.67;;;;;;;;6195871;22;45346;-83
2021/10/29 22:06:41;;;;;;;;;29.67;28.00;;;;;;;;6222825;22;45294;-83
2021/10/29 22:09:08;;;;;;;;;30.33;28.67;;;;;;;;6196213;22;45311;-83
2021/10/29 22:11:39;;;;;;;;;29.00;28.00;;;;;;;;6196884;22;44926;-82
2021/10/29 22:14:08;;;;;;;;;32.33;30.00;;;;;;;;6223414;22;46400;-83
2021/10/29 22:16:34;;;;;;;;;31.33;29.33;;;;;;;;6198079;22;45340;-83
2021/10/29 22:19:02;;;;;;;;;29.67;29.00;;;;;;;;6198346;22;44782;-83
2021/10/29 22:21:27;;;;;;;;;33.00;27.67;;;;;;;;6224258;22;45639;-81
2021/10/29 22:23:52;;;;;;;;;28.67;28.67;;;;;;;;6196439;22;46886;-81
2021/10/29 22:26:18;;;;;;;;;25.00;22.33;;;;;;;;6196849;22;45579;-81
2021/10/29 22:28:51;;;;;;;;;26.67;25.67;;;;;;;;6197159;22;45514;-81
2021/10/29 22:31:17;;;;;;;;;29.33;27.00;;;;;;;;6196835;22;45636;-81
2021/10/29 22:33:42;;;;;;;;;25.00;25.00;;;;;;;;6223801;22;46304;-81
2021/10/29 22:36:07;;;;;;;;;26.33;26.33;;;;;;;;6223396;22;45309;-81
2021/10/29 22:39:00;;;;;;;;;30.67;28.33;;;;;;;;6198323;22;45227;-81
2021/10/29 22:41:26;;;;;;;;;28.00;27.00;;;;;;;;6226445;22;45350;-81
2021/10/29 22:43:51;;;;;;;;;25.33;23.67;;;;;;;;6195621;22;46741;-81
2021/10/29 22:46:16;;;;;;;;;28.33;28.33;;;;;;;;6197927;22;45779;-81
2021/10/29 22:48:42;;;;;;;;;23.67;23.33;;;;;;;;6195024;22;45458;-81
2021/10/29 22:51:13;;;;;;;;;28.33;24.33;;;;;;;;6219797;22;45417;-81
2021/10/29 22:53:39;;;;;;;;;24.33;22.00;;;;;;;;6219245;22;45690;-82
2021/10/29 22:56:13;;;;;;;;;24.33;23.67;;;;;;;;6223508;22;45716;-82
2021/10/29 22:58:43;;;;;;;;;24.67;23.33;;;;;;;;6196538;22;45236;-81
2021/10/29 23:01:08;;;;;;;;;22.67;22.67;;;;;;;;6224699;22;45244;-82
2021/10/29 23:03:34;;;;;;;;;23.33;23.33;;;;;;;;6223005;22;45200;-82
2021/10/29 23:06:00;;;;;;;;;28.00;24.00;;;;;;;;6219956;22;45434;-81
2021/10/29 23:08:27;;;;;;;;;24.00;21.67;;;;;;;;6196196;22;45449;-82
2021/10/29 23:10:52;;;;;;;;;23.00;23.00;;;;;;;;6223785;22;45191;-81
2021/10/29 23:13:18;;;;;;;;;25.33;25.33;;;;;;;;6223298;22;46439;-82
2021/10/29 23:15:44;;;;;;;;;31.00;29.50;;;;;;;;6222553;22;45396;-82
2021/10/29 23:18:09;;;;;;;;;23.33;20.00;;;;;;;;6194969;22;45447;-82
2021/10/29 23:20:35;;;;;;;;;27.33;27.00;;;;;;;;6196262;22;45358;-82
2021/10/29 23:23:04;;;;;;;;;29.33;25.00;;;;;;;;6224080;22;45390;-82
2021/10/29 23:25:30;;;;;;;;;28.67;26.00;;;;;;;;6223160;22;45378;-82
2021/10/29 23:27:56;;;;;;;;;30.67;29.33;;;;;;;;6224142;22;45337;-82
2021/10/29 23:30:22;;;;;;;;;27.00;25.33;;;;;;;;6198331;22;45336;-82
2021/10/29 23:32:47;;;;;;;;;32.67;28.00;;;;;;;;6225190;22;45624;-82
2021/10/29 23:35:12;;;;;;;;;30.33;30.00;;;;;;;;6195376;22;44745;-82
2021/10/29 23:37:42;;;;;;;;;25.33;25.00;;;;;;;;6195488;22;44798;-82
2021/10/29 23:40:26;;;;;;;;;32.33;30.67;;;;;;;;6220016;22;44820;-82
2021/10/29 23:42:52;;;;;;;;;28.00;25.00;;;;;;;;6219808;22;46810;-82
2021/10/29 23:45:18;;;;;;;;;31.00;29.33;;;;;;;;6192884;22;45307;-82
2021/10/29 23:47:43;;;;;;;;;27.00;25.33;;;;;;;;6194998;22;44724;-82
2021/10/29 23:50:08;;;;;;;;;30.00;27.00;;;;;;;;6222994;22;45358;-83
2021/10/29 23:52:34;;;;;;;;;26.00;26.00;;;;;;;;6221764;22;46780;-82
2021/10/29 23:54:59;;;;;;;;;23.67;23.33;;;;;;;;6224175;22;44822;-82
2021/10/29 23:57:24;;;;;;;;;27.33;25.67;;;;;;;;6224130;22;45430;-82
2021/10/29 23:59:49;;;;;;;;;28.33;28.33;;;;;;;;6225716;22;44755;-82
